Time;durP1;ratioP1;P1;durP2;ratioP2;P2;SDS_P1;SDS_P2;PMS_P1;PMS_P2;Temp;Humidity;BMP_temperature;BMP_pressure;BME280_temperature;BME280_humidity;BME280_pressure;Samples;Min_cycle;Max_cycle;Signal;HPM_P1;HPM_P2
2022/06/20 00:01:34;;;;;;;2.83;2.62;;;;;;;18.31;100.00;100035.88;4454452;32;20097;-77
2022/06/20 00:04:02;;;;;;;5.30;3.25;;;;;;;18.22;100.00;100041.66;4454290;32;20530;-77
2022/06/20 00:06:30;;;;;;;4.00;2.67;;;;;;;18.23;100.00;100035.38;4453822;32;20183;-77
2022/06/20 00:08:57;;;;;;;4.97;3.00;;;;;;;18.25;100.00;100030.84;4439957;32;20081;-77
2022/06/20 00:11:36;;;;;;;6.28;2.97;;;;;;;18.21;100.00;100029.25;4454121;32;20136;-77
2022/06/20 00:14:04;;;;;;;3.33;2.47;;;;;;;18.13;100.00;100035.84;4454290;32;20097;-77
2022/06/20 00:16:33;;;;;;;5.70;3.00;;;;;;;18.03;100.00;100028.34;4427286;32;20173;-77
2022/06/20 00:19:01;;;;;;;3.67;3.28;;;;;;;18.08;100.00;100034.31;4454273;32;20180;-77
2022/06/20 00:21:29;;;;;;;6.37;2.65;;;;;;;18.06;100.00;100023.75;4454247;32;20092;-77
2022/06/20 00:23:56;;;;;;;5.57;2.90;;;;;;;18.03;100.00;100025.69;4454233;32;20504;-77
2022/06/20 00:26:23;;;;;;;7.32;3.03;;;;;;;18.02;100.00;100019.50;4454004;32;20239;-77
2022/06/20 00:28:50;;;;;;;4.37;2.97;;;;;;;17.96;100.00;100019.78;4454199;32;20116;-77
2022/06/20 00:31:18;;;;;;;6.10;2.95;;;;;;;18.02;100.00;100013.28;4454116;32;20115;-77
2022/06/20 00:33:45;;;;;;;3.90;3.05;;;;;;;17.98;100.00;100015.22;4439661;32;20124;-77
2022/06/20 00:36:13;;;;;;;3.67;2.53;;;;;;;18.08;100.00;100010.31;4453869;32;20112;-77
2022/06/20 00:38:43;;;;;;;3.20;2.90;;;;;;;18.02;100.00;100023.94;4454108;32;20943;-76
2022/06/20 00:41:21;;;;;;;3.22;2.92;;;;;;;18.08;100.00;100013.84;4453971;32;20535;-76
2022/06/20 00:43:52;;;;;;;5.68;3.08;;;;;;;18.10;100.00;100017.31;4454162;32;20146;-77
2022/06/20 00:46:37;;;;;;;3.55;3.05;;;;;;;18.25;100.00;99999.69;4454103;32;20105;-77
2022/06/20 00:49:12;;;;;;;12.30;3.37;;;;;;;18.21;100.00;100005.25;4453981;32;20085;-77
2022/06/20 00:51:48;;;;;;;6.50;3.05;;;;;;;18.25;100.00;99998.84;4453660;32;20089;-76
2022/06/20 00:54:43;;;;;;;5.97;3.10;;;;;;;18.26;100.00;100005.88;4454089;32;20381;-77
2022/06/20 00:57:17;;;;;;;9.27;3.28;;;;;;;18.29;100.00;100006.59;4453641;32;20157;-77
2022/06/20 00:59:57;;;;;;;6.87;2.62;;;;;;;18.28;100.00;99996.00;4453854;32;20084;-77
2022/06/20 01:02:28;;;;;;;4.75;2.90;;;;;;;18.33;100.00;99994.81;4453647;32;20093;-77
2022/06/20 01:05:07;;;;;;;3.08;2.78;;;;;;;18.24;100.00;99987.31;4453643;32;20096;-77
2022/06/20 01:07:52;;;;;;;5.30;3.37;;;;;;;18.15;100.00;99985.94;4453594;32;20109;-77
2022/06/20 01:10:21;;;;;;;5.15;3.22;;;;;;;18.10;100.00;99992.47;4453569;32;20467;-77
2022/06/20 01:13:00;;;;;;;4.60;3.08;;;;;;;18.03;100.00;99991.88;4438849;32;20100;-77
2022/06/20 01:15:39;;;;;;;5.35;2.90;;;;;;;18.02;100.00;99987.50;4453563;32;20097;-77
2022/06/20 01:18:16;;;;;;;6.93;3.00;;;;;;;17.76;100.00;99980.75;4439373;32;20116;-76
2022/06/20 01:20:45;;;;;;;3.30;2.75;;;;;;;17.62;100.00;99977.84;4455434;32;20815;-77
2022/06/20 01:23:38;;;;;;;5.07;2.67;;;;;;;17.61;100.00;99981.47;4440892;32;20461;-77
2022/06/20 01:26:47;;;;;;;4.57;2.67;;;;;;;17.66;100.00;99966.09;4447158;32;20104;-77
2022/06/20 01:29:15;;;;;;;8.95;3.00;;;;;;;17.64;100.00;99960.84;4455305;32;20112;-77
2022/06/20 01:31:47;;;;;;;8.18;3.40;;;;;;;17.55;100.00;99955.97;4455362;32;20132;-77
2022/06/20 01:34:16;;;;;;;7.72;2.92;;;;;;;17.49;100.00;99953.59;4455378;32;20457;-77
2022/06/20 01:37:30;;;;;;;5.93;2.97;;;;;;;17.41;100.00;99947.75;4455278;32;20588;-77
2022/06/20 01:39:40;;;;;;;4.45;3.00;;;;;;;17.30;100.00;99955.37;4451007;32;20100;-76
2022/06/20 01:42:28;;;;;;;8.32;3.20;;;;;;;17.22;100.00;99949.56;4455251;32;20077;-76
2022/06/20 01:45:57;;;;;;;7.30;3.17;;;;;;;17.21;100.00;99951.38;4455305;32;20085;-77
2022/06/20 01:48:12;;;;;;;5.43;3.12;;;;;;;17.23;100.00;99959.28;4455102;32;20128;-77
2022/06/20 01:50:42;;;;;;;8.18;3.62;;;;;;;17.22;100.00;99957.56;4440653;32;20506;-77
2022/06/20 01:53:12;;;;;;;3.62;3.03;;;;;;;17.16;100.00;99950.69;4455278;32;20514;-77
2022/06/20 01:55:43;;;;;;;3.12;2.83;;;;;;;17.13;100.00;99959.69;4455317;32;20085;-76
2022/06/20 01:58:36;;;;;;;7.30;3.30;;;;;;;17.06;100.00;99952.03;4455308;32;20152;-77
2022/06/20 02:01:05;;;;;;;5.18;2.78;;;;;;;17.04;100.00;99959.25;4445331;32;20534;-76
2022/06/20 02:03:36;;;;;;;3.70;2.95;;;;;;;16.98;100.00;99954.19;4455400;32;20440;-76
2022/06/20 02:06:04;;;;;;;12.82;2.97;;;;;;;16.93;100.00;99949.09;4455170;32;20115;-76
2022/06/20 02:08:32;;;;;;;7.50;3.50;;;;;;;16.87;100.00;99942.25;4455063;32;20112;-76
2022/06/20 02:11:06;;;;;;;7.87;3.45;;;;;;;16.84;100.00;99938.84;4455170;32;20744;-77
2022/06/20 02:13:38;;;;;;;5.95;3.08;;;;;;;16.75;100.00;99942.81;4455424;32;20553;-76
2022/06/20 02:16:09;;;;;;;4.05;3.10;;;;;;;16.73;100.00;99926.00;4455057;32;20127;-76
2022/06/20 02:18:41;;;;;;;5.10;3.50;;;;;;;16.74;100.00;99922.44;4455145;32;20503;-77
2022/06/20 02:21:15;;;;;;;6.97;3.47;;;;;;;16.82;100.00;99930.06;4455051;32;20264;-76
2022/06/20 02:23:47;;;;;;;4.68;3.42;;;;;;;16.82;100.00;99927.41;4455066;32;20674;-77
2022/06/20 02:26:16;;;;;;;5.53;3.33;;;;;;;16.80;100.00;99923.97;4455006;32;20101;-77
2022/06/20 02:28:58;;;;;;;4.53;3.40;;;;;;;16.76;100.00;99919.72;4440273;32;20112;-77
2022/06/20 02:31:26;;;;;;;5.15;3.45;;;;;;;16.68;100.00;99922.69;4454951;32;20108;-77
2022/06/20 02:33:54;;;;;;;3.33;3.00;;;;;;;16.66;100.00;99919.22;4454916;32;20081;-77
2022/06/20 02:36:22;;;;;;;9.00;3.78;;;;;;;16.64;100.00;99919.31;4454907;32;20509;-76
2022/06/20 02:38:52;;;;;;;6.87;3.20;;;;;;;16.68;100.00;99906.72;4454997;32;20503;-76
2022/06/20 02:41:26;;;;;;;5.10;3.45;;;;;;;16.70;100.00;99907.50;4454929;32;20096;-76
2022/06/20 02:43:58;;;;;;;5.03;3.70;;;;;;;16.66;100.00;99905.91;4455096;32;20686;-76
2022/06/20 02:46:28;;;;;;;9.38;3.17;;;;;;;16.60;100.00;99906.19;4454890;32;20144;-76
2022/06/20 02:48:57;;;;;;;4.62;3.80;;;;;;;16.56;100.00;99905.47;4454764;32;20096;-76
2022/06/20 02:51:29;;;;;;;6.20;3.60;;;;;;;16.55;100.00;99908.19;4454498;32;20100;-77
2022/06/20 02:54:01;;;;;;;4.18;3.47;;;;;;;16.53;100.00;99908.25;4454819;32;20183;-77
2022/06/20 02:56:41;;;;;;;5.53;3.40;;;;;;;16.54;100.00;99906.44;4454960;32;20073;-76
2022/06/20 02:59:16;;;;;;;8.63;3.30;;;;;;;16.55;100.00;99908.19;4454789;32;20108;-76
2022/06/20 03:01:52;;;;;;;9.20;3.90;;;;;;;16.65;100.00;99910.37;4454919;32;20096;-76
2022/06/20 03:04:23;;;;;;;4.80;3.70;;;;;;;16.80;100.00;99923.97;4454765;32;20109;-76
2022/06/20 03:06:56;;;;;;;6.57;3.22;;;;;;;16.77;100.00;99916.13;4454819;32;20415;-76
2022/06/20 03:09:28;;;;;;;6.22;3.60;;;;;;;16.84;100.00;99909.59;4454633;32;20441;-76
2022/06/20 03:11:56;;;;;;;5.00;3.95;;;;;;;16.87;100.00;99904.97;4454599;32;20153;-77
2022/06/20 03:14:30;;;;;;;7.43;3.40;;;;;;;16.89;100.00;99902.25;4454618;32;20456;-77
2022/06/20 03:16:58;;;;;;;3.90;3.30;;;;;;;16.94;100.00;99909.09;4454786;32;20467;-77
2022/06/20 03:19:31;;;;;;;7.47;3.78;;;;;;;17.06;100.00;99907.66;4454736;32;20089;-77
2022/06/20 03:22:11;;;;;;;9.27;3.28;;;;;;;17.01;100.00;99907.03;4454617;32;20462;-77
2022/06/20 03:24:41;;;;;;;7.62;3.58;;;;;;;17.08;100.00;99905.81;4454740;32;20149;-77
2022/06/20 03:27:16;;;;;;;6.75;3.62;;;;;;;17.12;100.00;99906.53;4454620;32;20092;-77
2022/06/20 03:29:46;;;;;;;11.98;3.87;;;;;;;17.18;100.00;99903.59;4454630;32;20133;-77
2022/06/20 03:32:13;;;;;;;6.57;3.28;;;;;;;17.23;100.00;99901.56;4454405;32;20154;-77
2022/06/20 03:34:40;;;;;;;10.25;3.75;;;;;;;17.31;100.00;99903.84;4460861;31;20089;-76
2022/06/20 03:37:08;;;;;;;7.40;3.58;;;;;;;17.37;100.00;99903.56;4454289;32;20088;-77
2022/06/20 03:39:36;;;;;;;4.53;3.60;;;;;;;17.34;100.00;99901.91;4454476;32;20101;-77
2022/06/20 03:42:04;;;;;;;3.67;3.35;;;;;;;17.48;100.00;99901.25;4453811;32;20232;-75
2022/06/20 03:44:36;;;;;;;8.35;3.20;;;;;;;17.54;100.00;99898.31;4454494;32;20089;-75
2022/06/20 03:47:21;;;;;;;10.20;4.00;;;;;;;17.85;100.00;99892.38;4454536;32;20112;-75
2022/06/20 03:50:00;;;;;;;4.80;2.97;;;;;;;18.05;100.00;99902.00;4454199;32;20565;-75
2022/06/20 03:52:34;;;;;;;4.37;3.15;;;;;;;18.14;100.00;99895.37;4462322;32;20096;-75
2022/06/20 03:55:23;;;;;;;7.95;3.47;;;;;;;18.17;100.00;99891.69;4460411;32;20103;-75
2022/06/20 03:58:05;;;;;;;7.60;3.47;;;;;;;18.18;100.00;99896.06;4469235;32;20111;-75
2022/06/20 04:00:42;;;;;;;5.10;3.75;;;;;;;18.44;100.00;99887.56;4470747;32;20127;-75
2022/06/20 04:03:16;;;;;;;7.55;3.72;;;;;;;18.56;100.00;99899.44;4471051;32;20165;-75
2022/06/20 04:05:50;;;;;;;6.95;3.58;;;;;;;18.53;100.00;99897.78;4470540;32;20080;-75
2022/06/20 04:11:35;;;;;;;4.12;3.72;;;;;;;18.82;100.00;99895.41;4466800;32;20158;-75
2022/06/20 04:14:09;;;;;;;8.33;3.93;;;;;;;18.96;100.00;99886.66;4455087;32;20136;-75
2022/06/20 04:16:45;;;;;;;9.55;3.90;;;;;;;19.21;100.00;99894.19;4455245;32;20141;-74
2022/06/20 04:19:25;;;;;;;7.55;3.83;;;;;;;19.33;100.00;99894.37;4454071;32;20081;-75
2022/06/20 04:22:00;;;;;;;5.07;3.75;;;;;;;19.52;100.00;99904.00;4454476;32;20157;-75
2022/06/20 04:24:38;;;;;;;6.87;3.50;;;;;;;19.57;100.00;99905.47;4454848;32;20104;-74
2022/06/20 04:27:25;;;;;;;6.20;3.62;;;;;;;19.62;100.00;99909.72;4455254;32;20425;-75
2022/06/20 04:29:59;;;;;;;14.32;4.12;;;;;;;19.76;100.00;99899.97;4454917;32;20168;-75
2022/06/20 04:32:42;;;;;;;11.30;4.60;;;;;;;19.90;100.00;99896.50;4454895;32;20691;-75
2022/06/20 04:35:17;;;;;;;11.93;4.03;;;;;;;20.03;100.00;99901.97;4454770;32;20084;-75
2022/06/20 04:37:50;;;;;;;24.17;4.60;;;;;;;20.29;100.00;99903.13;4468386;31;20092;-74
2022/06/20 04:40:41;;;;;;;10.43;3.97;;;;;;;20.41;100.00;99910.41;4485756;31;20081;-75
2022/06/20 04:43:11;;;;;;;9.43;4.40;;;;;;;20.53;100.00;99898.16;4486109;31;20092;-75
2022/06/20 04:46:05;;;;;;;9.68;4.28;;;;;;;20.62;100.00;99904.75;4486206;31;20091;-75
2022/06/20 04:48:32;;;;;;;14.80;4.10;;;;;;;20.79;100.00;99898.38;4471008;31;20403;-75
2022/06/20 04:51:06;;;;;;;6.87;3.97;;;;;;;20.88;100.00;99895.97;4453467;32;20076;-75
2022/06/20 04:53:42;;;;;;;11.38;4.10;;;;;;;21.00;100.00;99897.88;4454148;32;20562;-75
2022/06/20 04:56:14;;;;;;;17.45;4.25;;;;;;;20.81;100.00;99897.28;4453771;32;20529;-75
2022/06/20 04:58:49;;;;;;;10.68;4.15;;;;;;;21.03;98.73;99893.31;4454150;32;20084;-75
2022/06/20 05:01:19;;;;;;;6.65;4.25;;;;;;;21.13;97.56;99894.41;4454280;32;20258;-75
2022/06/20 05:03:55;;;;;;;5.90;3.97;;;;;;;21.26;95.57;99898.03;4454455;32;20165;-75
2022/06/20 05:06:24;;;;;;;;;;;;;;;21.33;94.78;99898.53;4454465;32;20122;-75
2022/06/20 05:09:36;;;;;;;9.63;4.22;;;;;;;21.46;94.11;99897.66;4452716;32;20237;-75
2022/06/20 05:12:16;;;;;;;11.85;3.60;;;;;;;21.55;92.73;99906.91;4445103;31;20135;-75
2022/06/20 05:14:58;;;;;;;8.52;3.90;;;;;;;21.79;89.47;99912.50;4455287;32;20108;-75
2022/06/20 05:17:29;;;;;;;14.65;4.25;;;;;;;21.95;88.01;99896.28;4453538;32;20112;-75
2022/06/20 05:20:02;;;;;;;6.62;3.70;;;;;;;21.89;87.42;99897.53;4462980;32;20194;-75
2022/06/20 05:22:37;;;;;;;11.20;4.05;;;;;;;21.92;89.12;99907.19;4458326;32;20092;-75
2022/06/20 05:25:07;;;;;;;7.60;4.35;;;;;;;22.01;88.18;99908.41;4458453;32;20097;-75
2022/06/20 05:27:48;;;;;;;9.32;3.67;;;;;;;21.99;85.87;99911.19;4459366;32;20100;-75
2022/06/20 05:30:18;;;;;;;6.22;4.18;;;;;;;21.93;85.33;99912.44;4459246;32;20719;-76
2022/06/20 05:33:20;;;;;;;6.87;4.43;;;;;;;21.97;86.91;99918.47;4468793;32;20084;-76
2022/06/20 05:35:50;;;;;;;8.82;4.53;;;;;;;22.10;87.35;99926.56;4435259;32;20217;-75
2022/06/20 05:38:26;;;;;;;12.07;4.82;;;;;;;22.18;88.35;99918.88;4455092;32;20112;-75
2022/06/20 05:40:57;;;;;;;15.73;5.78;;;;;;;22.24;87.63;99918.47;4457844;32;20092;-75
2022/06/20 05:43:29;;;;;;;15.95;4.55;;;;;;;22.51;85.54;99914.84;4463855;32;20089;-76
2022/06/20 05:46:24;;;;;;;11.20;4.87;;;;;;;22.43;86.20;99920.75;4452131;32;20123;-76
2022/06/20 05:49:00;;;;;;;10.45;4.30;;;;;;;22.53;83.94;99918.31;4454016;32;20109;-75
2022/06/20 05:51:28;;;;;;;7.03;3.60;;;;;;;22.65;82.57;99923.72;4461014;32;20114;-75
2022/06/20 05:54:12;;;;;;;12.05;3.72;;;;;;;22.79;81.89;99920.06;4466365;32;20100;-76
2022/06/20 05:56:50;;;;;;;7.12;3.72;;;;;;;22.86;81.41;99918.66;4466777;32;20683;-75
2022/06/20 05:59:41;;;;;;;6.75;3.92;;;;;;;22.98;81.15;99929.53;4467769;32;20100;-76
2022/06/20 06:02:18;;;;;;;14.18;3.90;;;;;;;23.05;81.50;99928.12;4455298;32;20669;-76
2022/06/20 06:04:53;;;;;;;10.18;3.90;;;;;;;23.15;81.10;99926.53;4462655;32;20096;-75
2022/06/20 06:07:27;;;;;;;10.90;3.70;;;;;;;23.28;81.37;99927.34;4465448;32;20743;-75
2022/06/20 06:09:59;;;;;;;4.25;3.45;;;;;;;23.37;81.32;99932.06;4463860;32;20165;-75
2022/06/20 06:12:35;;;;;;;8.07;3.33;;;;;;;23.41;79.09;99923.78;4464415;32;20499;-75
2022/06/20 06:15:15;;;;;;;9.27;3.87;;;;;;;23.41;79.55;99926.47;4470384;32;20688;-75
2022/06/20 06:17:50;;;;;;;4.65;3.67;;;;;;;23.53;78.87;99922.88;4469333;32;20587;-75
2022/06/20 06:20:23;;;;;;;6.78;4.00;;;;;;;23.67;77.66;99922.75;4469578;32;20459;-75
2022/06/20 06:22:59;;;;;;;8.32;3.12;;;;;;;23.77;77.02;99918.41;4464268;32;20108;-76
2022/06/20 06:25:28;;;;;;;;;;;;;;;23.80;75.99;99912.81;4463286;32;20097;-75
2022/06/20 06:27:59;;;;;;;9.05;3.47;;;;;;;23.89;74.29;99919.34;4467272;32;20044;-75
2022/06/20 06:30:39;;;;;;;9.65;3.80;;;;;;;23.97;74.19;99925.00;4460575;32;20196;-75
2022/06/20 06:33:09;;;;;;;5.87;3.95;;;;;;;24.22;74.38;99915.94;4464435;32;20112;-75
2022/06/20 06:35:44;;;;;;;14.18;4.25;;;;;;;24.40;72.67;99926.31;4460701;32;20100;-75
2022/06/20 06:38:16;;;;;;;14.30;3.85;;;;;;;24.52;73.30;99922.66;4463841;32;20552;-75
2022/06/20 06:40:51;;;;;;;12.82;3.70;;;;;;;24.59;72.43;99915.81;4470180;32;20115;-74
2022/06/20 06:43:32;;;;;;;11.45;4.32;;;;;;;24.64;70.45;99913.66;4464457;32;20072;-75
2022/06/20 06:46:00;;;;;;;13.77;3.97;;;;;;;24.69;73.02;99921.34;4461696;32;20099;-75
2022/06/20 06:48:40;;;;;;;10.55;3.95;;;;;;;24.82;70.92;99914.03;4461203;32;20436;-75
2022/06/20 06:51:19;;;;;;;9.38;3.40;;;;;;;24.99;71.07;99926.19;4462331;32;20127;-75
2022/06/20 06:53:53;;;;;;;6.57;3.60;;;;;;;25.06;69.64;99907.69;4463352;32;20088;-75
2022/06/20 06:56:34;;;;;;;6.85;3.72;;;;;;;25.08;68.61;99911.09;4463851;32;20175;-75
2022/06/20 06:59:34;;;;;;;12.20;3.97;;;;;;;25.12;68.54;99916.16;4461000;32;20100;-75
2022/06/20 07:02:03;;;;;;;6.60;3.83;;;;;;;25.14;69.52;99916.91;4458652;32;20152;-75
2022/06/20 07:04:45;;;;;;;8.30;3.75;;;;;;;25.30;68.50;99908.47;4460854;32;20149;-75
2022/06/20 07:07:43;;;;;;;14.85;4.12;;;;;;;25.44;66.62;99905.50;4454004;32;20111;-75
2022/06/20 07:10:16;;;;;;;;;;;;;;;25.56;67.85;99895.53;4448623;32;20085;-75
2022/06/20 07:12:48;;;;;;;5.57;3.45;;;;;;;25.55;67.54;99891.12;4454960;32;20408;-75
2022/06/20 07:15:17;;;;;;;12.10;3.85;;;;;;;25.54;67.65;99888.53;4452665;32;20131;-75
2022/06/20 07:17:55;;;;;;;10.23;3.42;;;;;;;25.68;68.45;99883.72;4453905;32;20149;-76
2022/06/20 07:20:27;;;;;;;11.98;4.07;;;;;;;25.97;68.68;99888.56;4453835;32;20093;-75
2022/06/20 07:23:00;;;;;;;6.68;3.53;;;;;;;26.11;67.01;99880.16;4458178;32;20123;-75
2022/06/20 07:25:35;;;;;;;11.45;3.50;;;;;;;26.12;66.73;99883.72;4455382;32;20523;-76
2022/06/20 07:28:05;;;;;;;10.38;4.00;;;;;;;26.33;68.08;99881.03;4456703;32;20081;-76
2022/06/20 07:30:40;;;;;;;9.60;3.90;;;;;;;26.51;66.65;99884.91;4459549;32;20405;-76
2022/06/20 07:33:17;;;;;;;12.82;4.10;;;;;;;26.82;66.25;99879.50;4457464;32;20119;-76
2022/06/20 07:35:48;;;;;;;11.63;3.95;;;;;;;27.02;63.31;99867.78;4469946;32;20125;-76
2022/06/20 07:38:25;;;;;;;12.23;4.30;;;;;;;27.15;63.28;99873.84;4469810;32;20081;-76
2022/06/20 07:41:13;;;;;;;11.15;3.83;;;;;;;27.30;63.62;99873.47;4462944;32;20146;-76
2022/06/20 07:43:43;;;;;;;13.15;3.97;;;;;;;27.51;63.09;99860.72;4468295;32;20787;-76
2022/06/20 07:46:14;;;;;;;9.60;3.53;;;;;;;27.81;63.17;99858.91;4461698;32;20164;-76
2022/06/20 07:48:44;;;;;;;13.57;3.70;;;;;;;27.96;60.96;99856.66;4463999;32;20115;-75
2022/06/20 07:51:23;;;;;;;12.68;3.65;;;;;;;28.10;59.78;99857.09;4470170;32;20130;-76
2022/06/20 07:54:14;;;;;;;13.75;4.12;;;;;;;27.92;59.11;99864.22;4465824;32;20112;-77
2022/06/20 07:56:47;;;;;;;11.52;3.70;;;;;;;28.01;59.78;99860.62;4462067;32;20245;-77
2022/06/20 07:59:22;;;;;;;6.53;4.03;;;;;;;28.20;58.09;99859.78;4464686;32;20089;-77
2022/06/20 08:01:58;;;;;;;4.90;3.28;;;;;;;28.38;57.83;99857.22;4458663;32;20088;-76
2022/06/20 08:04:31;;;;;;;13.10;3.50;;;;;;;28.48;58.21;99851.75;4461477;32;20105;-76
2022/06/20 08:07:06;;;;;;;5.62;4.30;;;;;;;28.53;56.05;99849.50;4460688;32;20157;-76
2022/06/20 08:09:42;;;;;;;45.25;5.40;;;;;;;28.47;57.27;99848.19;4447289;32;20132;-77
2022/06/20 08:12:35;;;;;;;7.62;3.70;;;;;;;28.50;55.74;99839.78;4468818;32;20122;-77
2022/06/20 08:15:11;;;;;;;9.02;3.80;;;;;;;28.55;56.01;99836.62;4463365;32;20164;-77
2022/06/20 08:17:38;;;;;;;8.23;4.30;;;;;;;28.89;55.19;99834.22;4461005;32;21029;-77
2022/06/20 08:20:08;;;;;;;10.73;3.70;;;;;;;29.11;54.21;99834.88;4461778;32;20154;-77
2022/06/20 08:23:04;;;;;;;11.30;4.62;;;;;;;29.25;55.53;99837.09;4461132;32;20120;-77
2022/06/20 08:25:44;;;;;;;13.57;4.70;;;;;;;29.38;55.28;99828.59;4461466;32;20260;-76
2022/06/20 08:28:20;;;;;;;8.90;4.37;;;;;;;29.26;54.13;99830.66;4449555;32;20084;-77
2022/06/20 08:31:06;;;;;;;;;;;;;;;29.43;54.53;99834.41;4461558;32;20096;-77
2022/06/20 08:33:48;;;;;;;6.40;3.72;;;;;;;29.52;53.71;99826.19;4458856;32;20250;-77
2022/06/20 08:36:27;;;;;;;9.60;3.90;;;;;;;29.58;52.08;99824.75;4466755;32;20173;-77
2022/06/20 08:39:03;;;;;;;15.52;4.12;;;;;;;29.80;52.65;99826.16;4460998;32;20183;-77
2022/06/20 08:41:37;;;;;;;6.22;4.32;;;;;;;29.99;50.62;99820.56;4458683;32;20893;-76
2022/06/20 08:44:16;;;;;;;6.95;3.97;;;;;;;29.92;52.14;99824.06;4460984;32;20727;-77
2022/06/20 08:46:46;;;;;;;6.75;3.35;;;;;;;29.92;51.11;99827.63;4455300;32;20138;-76
2022/06/20 08:49:13;;;;;;;10.02;3.53;;;;;;;30.07;50.12;99829.78;4458718;32;20115;-77
2022/06/20 08:52:16;;;;;;;9.68;3.40;;;;;;;30.19;50.09;99818.53;4453799;32;20093;-77
2022/06/20 08:55:28;;;;;;;8.45;3.05;;;;;;;30.20;48.74;99822.12;4420280;32;20807;-78
2022/06/20 08:58:04;;;;;;;4.30;3.20;;;;;;;30.12;49.10;99819.31;4429469;32;20104;-78
2022/06/20 09:01:01;;;;;;;5.93;2.95;;;;;;;30.31;49.40;99813.69;4455139;32;20710;-78
2022/06/20 09:03:47;;;;;;;4.22;3.40;;;;;;;30.54;48.26;99811.31;4467101;31;20121;-78
2022/06/20 09:06:33;;;;;;;6.93;3.62;;;;;;;30.94;48.19;99802.53;4486087;31;20104;-78
2022/06/20 09:09:16;;;;;;;7.45;4.18;;;;;;;31.07;47.41;99804.81;4483332;31;20104;-78
2022/06/20 09:12:02;;;;;;;10.80;3.90;;;;;;;31.32;48.17;99796.75;4470339;32;20110;-78
2022/06/20 09:14:44;;;;;;;7.75;4.20;;;;;;;31.36;48.44;99795.37;4467761;32;20088;-78
2022/06/20 09:17:24;;;;;;;7.97;3.55;;;;;;;31.62;47.59;99787.09;4466832;32;20564;-78
2022/06/20 09:20:19;;;;;;;7.10;3.70;;;;;;;31.81;46.95;99780.47;4469646;32;20089;-78
2022/06/20 09:22:56;;;;;;;16.05;4.18;;;;;;;31.73;46.20;99775.00;4470045;32;20376;-78
2022/06/20 09:25:45;;;;;;;8.95;3.85;;;;;;;31.74;45.51;99777.56;4469992;32;20166;-78
2022/06/20 09:28:18;;;;;;;10.27;3.87;;;;;;;31.97;45.45;99766.03;4469784;32;20465;-78
2022/06/20 09:31:04;;;;;;;3.85;3.55;;;;;;;32.07;45.50;99766.69;4469817;32;20084;-78
2022/06/20 09:33:34;;;;;;;4.97;4.57;;;;;;;32.19;44.85;99762.56;4469698;32;20140;-78
2022/06/20 09:36:32;;;;;;;18.92;4.40;;;;;;;32.42;44.68;99751.00;4469076;32;20096;-78
2022/06/20 09:39:51;;;;;;;9.43;3.40;;;;;;;32.56;45.36;99744.81;4470221;32;20118;-78
2022/06/20 09:42:58;;;;;;;7.43;3.08;;;;;;;32.85;44.32;99741.44;4438270;32;20100;-79
2022/06/20 09:45:31;;;;;;;7.55;3.25;;;;;;;32.74;42.78;99739.97;4467310;32;20093;-78
2022/06/20 09:48:11;;;;;;;3.85;3.17;;;;;;;32.72;42.20;99741.16;4463470;32;20412;-79
2022/06/20 09:51:02;;;;;;;8.50;3.53;;;;;;;32.42;43.15;99737.34;4445626;32;20825;-79
2022/06/20 09:53:43;;;;;;;8.88;3.05;;;;;;;32.71;41.46;99742.19;4455791;32;20112;-79
2022/06/20 09:56:22;;;;;;;5.10;3.37;;;;;;;32.58;42.04;99724.53;4456236;32;20116;-80
2022/06/20 09:59:42;;;;;;;3.40;3.20;;;;;;;32.89;42.26;99731.03;4455959;32;20101;-80
2022/06/20 10:02:46;;;;;;;6.20;3.10;;;;;;;33.34;41.72;99735.72;4424257;32;20089;-79
2022/06/20 10:05:20;;;;;;;6.95;3.58;;;;;;;33.59;40.13;99730.97;4441436;32;20142;-78
2022/06/20 10:08:19;;;;;;;7.85;3.53;;;;;;;33.79;40.50;99723.97;4466659;32;20137;-79
2022/06/20 10:11:08;;;;;;;3.55;3.25;;;;;;;34.01;40.62;99713.22;4463035;32;20104;-79
2022/06/20 10:14:14;;;;;;;5.35;3.58;;;;;;;34.38;39.07;99712.28;4463523;32;20096;-79
2022/06/20 10:16:53;;;;;;;5.37;3.30;;;;;;;34.47;39.76;99710.31;4455736;32;20092;-79
2022/06/20 10:19:29;;;;;;;3.15;2.83;;;;;;;34.22;38.71;99718.78;4458071;32;20466;-81
2022/06/20 10:22:39;;;;;;;3.92;2.87;;;;;;;34.17;39.49;99715.78;4462427;32;20248;-77
2022/06/20 10:25:24;;;;;;;6.43;3.35;;;;;;;34.30;38.57;99719.75;4466997;32;20134;-76
2022/06/20 10:28:13;;;;;;;3.65;3.15;;;;;;;34.68;37.71;99713.16;4461189;32;20161;-72
2022/06/20 10:30:46;;;;;;;8.18;3.00;;;;;;;33.97;37.57;99706.38;4461203;32;20087;-73
2022/06/20 10:33:58;;;;;;;4.30;2.55;;;;;;;34.00;35.66;99698.69;4461360;32;20361;-72
2022/06/20 10:36:39;;;;;;;5.62;2.83;;;;;;;34.46;34.03;99703.16;4416271;32;20355;-74
2022/06/20 10:39:10;;;;;;;4.93;2.83;;;;;;;34.46;34.23;99698.53;4460986;32;20151;-74
2022/06/20 10:41:56;;;;;;;10.73;3.22;;;;;;;34.11;34.12;99699.28;4459621;32;20100;-74
2022/06/20 10:44:31;;;;;;;;;;;;;;;34.16;34.20;99692.19;4470241;32;20089;-74
2022/06/20 10:47:20;;;;;;;8.13;3.90;;;;;;;34.33;34.82;99690.13;4468870;32;19991;-74
2022/06/20 10:49:59;;;;;;;7.70;3.25;;;;;;;35.26;33.71;99688.56;4454130;32;20500;-73
2022/06/20 10:52:29;;;;;;;7.30;3.28;;;;;;;35.18;34.70;99692.28;4439714;32;20092;-73
2022/06/20 10:55:08;;;;;;;3.58;3.25;;;;;;;35.26;34.76;99688.56;4457638;32;20900;-74
2022/06/20 10:58:06;;;;;;;4.70;3.87;;;;;;;34.98;35.34;99696.66;4470513;32;20722;-74
2022/06/20 11:00:43;;;;;;;13.60;3.30;;;;;;;35.54;35.36;99691.41;4462899;32;20097;-74
2022/06/20 11:03:25;;;;;;;6.47;3.08;;;;;;;36.04;33.43;99678.53;4467219;32;20116;-74
2022/06/20 11:06:12;;;;;;;3.25;2.95;;;;;;;35.90;32.36;99685.81;4461466;32;20100;-73
2022/06/20 11:09:19;;;;;;;6.82;3.60;;;;;;;35.98;32.94;99671.09;4462909;32;20151;-73
2022/06/20 11:12:08;;;;;;;6.00;3.30;;;;;;;36.11;33.74;99660.22;4456951;32;20097;-73
2022/06/20 11:14:57;;;;;;;9.95;3.30;;;;;;;36.34;32.50;99670.06;4463695;32;20160;-73
2022/06/20 11:17:33;;;;;;;5.12;3.80;;;;;;;35.90;33.01;99679.44;4463235;32;20088;-73
2022/06/20 11:20:25;;;;;;;2.65;2.55;;;;;;;36.33;33.08;99661.00;4461529;32;20100;-72
2022/06/20 11:23:02;;;;;;;13.70;3.70;;;;;;;36.46;32.06;99649.22;4461859;32;20152;-72
2022/06/20 11:25:31;;;;;;;5.35;3.80;;;;;;;36.42;34.09;99656.19;4462910;32;20097;-72
2022/06/20 11:28:01;;;;;;;8.43;2.70;;;;;;;37.27;33.83;99654.78;4460514;32;20184;-73
2022/06/20 11:30:32;;;;;;;8.60;2.80;;;;;;;37.63;31.25;99660.97;4458632;32;20104;-73
2022/06/20 11:33:05;;;;;;;7.70;2.97;;;;;;;38.62;30.60;99655.28;4455203;32;20123;-73
2022/06/20 11:35:57;;;;;;;4.57;2.95;;;;;;;39.70;28.55;99648.94;4455376;32;20073;-73
2022/06/20 11:38:30;;;;;;;5.87;2.75;;;;;;;40.56;28.55;99649.94;4455496;32;20721;-74
2022/06/20 11:41:00;;;;;;;8.43;3.55;;;;;;;40.82;26.57;99652.41;4482891;31;20899;-74
2022/06/20 11:43:37;;;;;;;9.07;3.30;;;;;;;41.21;27.34;99647.38;4486949;31;20091;-73
2022/06/20 11:46:37;;;;;;;5.07;3.20;;;;;;;42.42;26.37;99645.06;4473583;31;20146;-73
2022/06/20 11:49:07;;;;;;;9.07;2.92;;;;;;;42.53;25.62;99643.34;4449278;32;20366;-74
2022/06/20 11:51:53;;;;;;;5.65;2.95;;;;;;;43.21;24.01;99641.63;4464005;32;20420;-74
2022/06/20 11:55:10;;;;;;;2.80;2.60;;;;;;;42.99;24.27;99647.03;4462114;32;20096;-77
2022/06/20 11:57:49;;;;;;;;;;;;;;;42.78;24.13;99645.81;4418902;32;20242;-75
2022/06/20 12:00:22;;;;;;;4.00;2.65;;;;;;;43.05;24.29;99646.06;4464890;32;20008;-76
2022/06/20 12:02:57;;;;;;;21.65;3.30;;;;;;;43.92;23.29;99641.16;4464198;32;20147;-81
2022/06/20 12:05:44;;;;;;;5.78;2.40;;;;;;;43.55;23.70;99636.97;4451062;32;20600;-75
2022/06/20 12:08:37;;;;;;;3.62;2.20;;;;;;;43.89;22.76;99643.37;4460480;32;20115;-76
2022/06/20 12:11:14;;;;;;;3.30;2.50;;;;;;;43.69;23.22;99637.47;4456934;32;20158;-76
2022/06/20 12:14:32;;;;;;;3.50;2.25;;;;;;;44.03;22.39;99634.66;4461663;32;20124;-76
2022/06/20 12:17:28;;;;;;;9.23;2.25;;;;;;;45.11;21.61;99639.66;4412397;32;20611;-76
2022/06/20 12:23:19;;;;;;;8.17;2.17;;;;;;;44.42;20.76;99621.59;4451784;32;20085;-76
2022/06/20 12:26:05;;;;;;;6.22;2.20;;;;;;;45.45;19.41;99617.97;4454635;32;20085;-77
2022/06/20 12:28:37;;;;;;;3.17;2.33;;;;;;;45.48;19.69;99615.53;4454111;32;21006;-76